This is the latest recevied weather packets stored in our database for station/object KA1AL. If no packets are shown the sender has not sent any weather packets the latest 1 day(s).
| Time | Temp. | Humidity | Pressure | Rain* | Wind** | Luminosity | Snow |
|---|---|---|---|---|---|---|---|
| 1777995724 | 18.33° C | 64% | 1005.5 hPa | 0 mm | 2.68 m/s, 235° | 251 W/m² | - |
| 1777995420 | 18.89° C | 64% | 1005.7 hPa | 0 mm | 3.13 m/s, 219° | 340 W/m² | - |
| 1777995118 | 18.89° C | 63% | 1005.7 hPa | 0 mm | 4.02 m/s, 221° | 388 W/m² | - |
| 1777994814 | 18.89° C | 64% | 1005.8 hPa | 0 mm | 5.81 m/s, 218° | 363 W/m² | - |
| 1777994511 | 18.89° C | 64% | 1005.8 hPa | 0 mm | 4.92 m/s, 231° | 619 W/m² | - |
| 1777994206 | 18.33° C | 64% | 1005.8 hPa | 0 mm | 3.58 m/s, 244° | 458 W/m² | - |
| 1777993904 | 18.89° C | 64% | 1005.8 hPa | 0 mm | 4.47 m/s, 212° | 419 W/m² | - |
| 1777993599 | 18.33° C | 65% | 1005.8 hPa | 0 mm | 4.47 m/s, 184° | 552 W/m² | - |
| 1777993297 | 17.78° C | 64% | 1005.7 hPa | 0 mm | 3.13 m/s, 197° | 432 W/m² | - |
| 1777992991 | 17.78° C | 67% | 1005.6 hPa | 0 mm | 2.24 m/s, 171° | 623 W/m² | - |
| 1777992690 | 18.33° C | 63% | 1005.7 hPa | 0 mm | 4.47 m/s, 213° | 892 W/m² | - |
| 1777992388 | 17.22° C | 65% | 1005.6 hPa | 0 mm | 3.58 m/s, 220° | 768 W/m² | - |
| 1777992085 | 17.78° C | 65% | 1005.8 hPa | 0 mm | 4.02 m/s, 180° | 740 W/m² | - |
| 1777991783 | 17.78° C | 66% | 1005.9 hPa | 0 mm | 4.92 m/s, 235° | 721 W/m² | - |
| 1777991480 | 17.22° C | 68% | 1006 hPa | 0 mm | 4.02 m/s, 200° | 717 W/m² | - |
| 1777991177 | 16.11° C | 70% | 1006.1 hPa | 0 mm | 2.24 m/s, 204° | 716 W/m² | - |
| 1777990874 | 16.11° C | 70% | 1005.9 hPa | 0 mm | 2.68 m/s, 192° | 711 W/m² | - |
| 1777990571 | 15.56° C | 71% | 1005.9 hPa | 0 mm | 2.24 m/s, 222° | 491 W/m² | - |
| 1777990268 | 16.11° C | 70% | 1006.2 hPa | 0 mm | 2.68 m/s, 174° | 394 W/m² | - |
| 1777989965 | 15.56° C | 71% | 1006.2 hPa | 0 mm | 2.24 m/s, 154° | 702 W/m² | - |
| 1777989662 | 15° C | 72% | 1006.2 hPa | 0 mm | 3.13 m/s, 221° | 699 W/m² | - |
| 1777989358 | 13.89° C | 75% | 1006.2 hPa | 0 mm | 2.24 m/s, 229° | 801 W/m² | - |
| 1777989055 | 13.89° C | 76% | 1006 hPa | 0 mm | 2.24 m/s, 249° | 231 W/m² | - |
| 1777988750 | 13.89° C | 75% | 1006 hPa | 0 mm | 2.24 m/s, 164° | 237 W/m² | - |
| 1777988448 | 13.89° C | 74% | 1006 hPa | 0 mm | 4.02 m/s, 243° | 260 W/m² | - |
* Rain latest hour (hover to see other rain measurements)
** Current wind speed in m/s (hover to see current wind gust speed)